This is the latest recevied weather packets stored in our database for station/object EA2RCU-15. If no packets are shown the sender has not sent any weather packets the latest 1 day(s).
| Time | Temp. | Humidity | Pressure | Rain* | Wind** | Luminosity | Snow |
|---|---|---|---|---|---|---|---|
| 1778093105 | 16.11° C | 54% | 996 hPa | 0 mm | - | - | - |
| 1778091905 | 18.89° C | 40% | 996 hPa | 0 mm | - | - | - |
| 1778091005 | 23.89° C | 31% | 996 hPa | 0 mm | - | - | - |
| 1778090706 | 24.44° C | 30% | 996 hPa | 0 mm | - | - | - |
| 1778089505 | 25.56° C | 29% | 995 hPa | 0 mm | - | - | - |
| 1778088605 | 22.78° C | 35% | 996 hPa | 0 mm | - | - | - |
| 1778088305 | 22.22° C | 34% | 996 hPa | 0 mm | - | - | - |
| 1778087705 | 25.56° C | 26% | 996 hPa | 0 mm | - | - | - |
| 1778087105 | 27.22° C | 23% | 996 hPa | 0 mm | - | - | - |
| 1778083205 | 15.56° C | 67% | 996 hPa | 0 mm | - | - | - |
| 1778082905 | 15.56° C | 66% | 996 hPa | 0 mm | - | - | - |
| 1778081105 | 17.22° C | 60% | 997 hPa | 0 mm | - | - | - |
| 1778080805 | 17.22° C | 61% | 997 hPa | 0 mm | - | - | - |
| 1778079305 | 16.11° C | 64% | 997 hPa | 0 mm | - | - | - |
| 1778078405 | 15.56° C | 64% | 997 hPa | 0 mm | - | - | - |
| 1778077806 | 16.11° C | 62% | 997 hPa | 1.02 mm | - | - | - |
| 1778076905 | 15.56° C | 63% | 997 hPa | 1.02 mm | - | - | - |
| 1778076305 | 15.56° C | 64% | 997 hPa | 1.02 mm | - | - | - |
| 1778075105 | 15.56° C | 68% | 997 hPa | 1.02 mm | - | - | - |
| 1778074806 | 15° C | 67% | 997 hPa | 1.02 mm | - | - | - |
| 1778073005 | 16.67° C | 48% | 996 hPa | 0 mm | - | - | - |
| 1778072105 | 16.11° C | 48% | 1044 hPa | 0 mm | - | - | - |
| 1778070005 | 16.67° C | 44% | 996 hPa | 0 mm | - | - | - |
| 1778068805 | 17.78° C | 41% | 997 hPa | 0 mm | - | - | - |
| 1778067905 | 16.67° C | 47% | 997 hPa | 0 mm | - | - | - |
* Rain latest hour (hover to see other rain measurements)
** Current wind speed in m/s (hover to see current wind gust speed)